sensor_id;sensor_type;location;lat;lon;timestamp;temperature;humidity
74484;SHT31;62942;52.462;10.846;2023-06-22T00:00:47;17.5;85.8
74484;SHT31;62942;52.462;10.846;2023-06-22T00:01:57;17.5;86
74484;SHT31;62942;52.462;10.846;2023-06-22T00:03:07;17.5;85.9
74484;SHT31;62942;52.462;10.846;2023-06-22T00:04:17;17.5;85.9
74484;SHT31;62942;52.462;10.846;2023-06-22T00:05:27;17.5;85.8
74484;SHT31;62942;52.462;10.846;2023-06-22T00:06:27;17.4;85.8
74484;SHT31;62942;52.462;10.846;2023-06-22T00:07:37;17.4;85.8
74484;SHT31;62942;52.462;10.846;2023-06-22T00:08:47;17.4;85.9
74484;SHT31;62942;52.462;10.846;2023-06-22T00:09:57;17.4;86.1
74484;SHT31;62942;52.462;10.846;2023-06-22T00:11:07;17.3;86.2
74484;SHT31;62942;52.462;10.846;2023-06-22T00:12:17;17.3;86.3
74484;SHT31;62942;52.462;10.846;2023-06-22T00:13:27;17.3;86.3
74484;SHT31;62942;52.462;10.846;2023-06-22T00:14:27;17.3;86.3
74484;SHT31;62942;52.462;10.846;2023-06-22T00:15:37;17.3;86.4
74484;SHT31;62942;52.462;10.846;2023-06-22T00:16:37;17.3;86.5
74484;SHT31;62942;52.462;10.846;2023-06-22T00:17:47;17.2;86.5
74484;SHT31;62942;52.462;10.846;2023-06-22T00:18:47;17.2;86.5
74484;SHT31;62942;52.462;10.846;2023-06-22T00:19:47;17.2;86.6
74484;SHT31;62942;52.462;10.846;2023-06-22T00:20:57;17.1;86.7
74484;SHT31;62942;52.462;10.846;2023-06-22T00:21:57;17.1;86.8
74484;SHT31;62942;52.462;10.846;2023-06-22T00:23:07;17.1;86.9
74484;SHT31;62942;52.462;10.846;2023-06-22T00:24:07;17.1;87
74484;SHT31;62942;52.462;10.846;2023-06-22T00:25:17;17;87.1
74484;SHT31;62942;52.462;10.846;2023-06-22T00:26:27;17;87.2
74484;SHT31;62942;52.462;10.846;2023-06-22T00:27:27;17;87.4
74484;SHT31;62942;52.462;10.846;2023-06-22T00:28:37;17;87.5
74484;SHT31;62942;52.462;10.846;2023-06-22T00:29:47;16.9;87.6
74484;SHT31;62942;52.462;10.846;2023-06-22T00:30:48;16.9;87.7
74484;SHT31;62942;52.462;10.846;2023-06-22T00:31:47;16.9;87.6
74484;SHT31;62942;52.462;10.846;2023-06-22T00:32:47;16.9;87.4
74484;SHT31;62942;52.462;10.846;2023-06-22T00:33:57;16.8;87.5
74484;SHT31;62942;52.462;10.846;2023-06-22T00:34:57;16.8;87.6
74484;SHT31;62942;52.462;10.846;2023-06-22T00:36:07;16.8;87.7
74484;SHT31;62942;52.462;10.846;2023-06-22T00:37:07;16.8;87.8
74484;SHT31;62942;52.462;10.846;2023-06-22T00:38:17;16.8;87.8
74484;SHT31;62942;52.462;10.846;2023-06-22T00:39:27;16.8;87.9
74484;SHT31;62942;52.462;10.846;2023-06-22T00:40:27;16.8;88.1
74484;SHT31;62942;52.462;10.846;2023-06-22T00:41:27;16.8;88.4
74484;SHT31;62942;52.462;10.846;2023-06-22T00:42:37;16.8;88.7
74484;SHT31;62942;52.462;10.846;2023-06-22T00:43:47;16.9;88.8
74484;SHT31;62942;52.462;10.846;2023-06-22T00:44:47;16.9;88.8
74484;SHT31;62942;52.462;10.846;2023-06-22T00:45:57;16.9;88.7
74484;SHT31;62942;52.462;10.846;2023-06-22T00:47:07;16.9;88.7
74484;SHT31;62942;52.462;10.846;2023-06-22T00:48:17;16.9;88.6
74484;SHT31;62942;52.462;10.846;2023-06-22T00:49:27;16.9;88.4
74484;SHT31;62942;52.462;10.846;2023-06-22T00:50:37;16.9;88.3
74484;SHT31;62942;52.462;10.846;2023-06-22T00:51:37;16.8;88.2
74484;SHT31;62942;52.462;10.846;2023-06-22T00:52:37;16.8;88.1
74484;SHT31;62942;52.462;10.846;2023-06-22T00:53:47;16.8;88.1
74484;SHT31;62942;52.462;10.846;2023-06-22T00:54:57;16.8;88.1
74484;SHT31;62942;52.462;10.846;2023-06-22T00:56:07;16.7;88.1
74484;SHT31;62942;52.462;10.846;2023-06-22T00:57:17;16.7;87.9
74484;SHT31;62942;52.462;10.846;2023-06-22T00:58:17;16.7;88
74484;SHT31;62942;52.462;10.846;2023-06-22T00:59:27;16.7;88.2
74484;SHT31;62942;52.462;10.846;2023-06-22T01:00:37;16.6;88.4
74484;SHT31;62942;52.462;10.846;2023-06-22T01:01:37;16.6;88.4
74484;SHT31;62942;52.462;10.846;2023-06-22T01:02:37;16.6;88.5
74484;SHT31;62942;52.462;10.846;2023-06-22T01:03:47;16.6;88.4
74484;SHT31;62942;52.462;10.846;2023-06-22T01:04:57;16.6;88.5
74484;SHT31;62942;52.462;10.846;2023-06-22T01:06:07;16.6;88.7
74484;SHT31;62942;52.462;10.846;2023-06-22T01:07:19;16.6;88.7
74484;SHT31;62942;52.462;10.846;2023-06-22T01:08:20;16.5;88.6
74484;SHT31;62942;52.462;10.846;2023-06-22T01:09:18;16.5;88.7
74484;SHT31;62942;52.462;10.846;2023-06-22T01:10:28;16.5;89
74484;SHT31;62942;52.462;10.846;2023-06-22T01:11:28;16.5;89.3
74484;SHT31;62942;52.462;10.846;2023-06-22T01:12:38;16.5;89.3
74484;SHT31;62942;52.462;10.846;2023-06-22T01:13:48;16.6;89.4
74484;SHT31;62942;52.462;10.846;2023-06-22T01:14:47;16.6;89.6
74484;SHT31;62942;52.462;10.846;2023-06-22T01:15:58;16.6;89.7
74484;SHT31;62942;52.462;10.846;2023-06-22T01:16:57;16.6;89.8
74484;SHT31;62942;52.462;10.846;2023-06-22T01:17:57;16.6;89.8
74484;SHT31;62942;52.462;10.846;2023-06-22T01:19:09;16.7;89.8
74484;SHT31;62942;52.462;10.846;2023-06-22T01:20:17;16.7;89.7
74484;SHT31;62942;52.462;10.846;2023-06-22T01:21:17;16.7;89.6
74484;SHT31;62942;52.462;10.846;2023-06-22T01:22:17;16.7;89.5
74484;SHT31;62942;52.462;10.846;2023-06-22T01:23:27;16.7;89.5
74484;SHT31;62942;52.462;10.846;2023-06-22T01:24:27;16.7;89.4
74484;SHT31;62942;52.462;10.846;2023-06-22T01:25:40;16.7;89.3
74484;SHT31;62942;52.462;10.846;2023-06-22T01:26:37;16.6;89.2
74484;SHT31;62942;52.462;10.846;2023-06-22T01:27:47;16.6;89
74484;SHT31;62942;52.462;10.846;2023-06-22T01:28:57;16.5;89
74484;SHT31;62942;52.462;10.846;2023-06-22T01:29:57;16.5;89
74484;SHT31;62942;52.462;10.846;2023-06-22T01:31:07;16.5;89.2
74484;SHT31;62942;52.462;10.846;2023-06-22T01:32:06;16.4;89.4
74484;SHT31;62942;52.462;10.846;2023-06-22T01:33:07;16.4;89.6
74484;SHT31;62942;52.462;10.846;2023-06-22T01:34:17;16.4;89.7
74484;SHT31;62942;52.462;10.846;2023-06-22T01:35:27;16.4;90
74484;SHT31;62942;52.462;10.846;2023-06-22T01:36:27;16.4;90.1
74484;SHT31;62942;52.462;10.846;2023-06-22T01:37:27;16.4;90.3
74484;SHT31;62942;52.462;10.846;2023-06-22T01:38:37;16.4;90.4
74484;SHT31;62942;52.462;10.846;2023-06-22T01:39:37;16.4;90.4
74484;SHT31;62942;52.462;10.846;2023-06-22T01:40:47;16.5;90.4
74484;SHT31;62942;52.462;10.846;2023-06-22T01:41:56;16.5;90.5
74484;SHT31;62942;52.462;10.846;2023-06-22T01:43:07;16.5;90.5
74484;SHT31;62942;52.462;10.846;2023-06-22T01:44:17;16.5;90.4
74484;SHT31;62942;52.462;10.846;2023-06-22T01:45:27;16.5;90.3
74484;SHT31;62942;52.462;10.846;2023-06-22T01:46:26;16.5;90.3
74484;SHT31;62942;52.462;10.846;2023-06-22T01:47:26;16.5;90.2
74484;SHT31;62942;52.462;10.846;2023-06-22T01:48:26;16.5;90.2
74484;SHT31;62942;52.462;10.846;2023-06-22T01:49:37;16.4;90.1
74484;SHT31;62942;52.462;10.846;2023-06-22T01:50:46;16.4;90
74484;SHT31;62942;52.462;10.846;2023-06-22T01:51:56;16.3;89.9
74484;SHT31;62942;52.462;10.846;2023-06-22T01:52:56;16.3;89.9
74484;SHT31;62942;52.462;10.846;2023-06-22T01:54:07;16.3;90
74484;SHT31;62942;52.462;10.846;2023-06-22T01:55:17;16.2;90.1
74484;SHT31;62942;52.462;10.846;2023-06-22T01:56:26;16.2;90.3
74484;SHT31;62942;52.462;10.846;2023-06-22T01:57:27;16.2;90.5
74484;SHT31;62942;52.462;10.846;2023-06-22T01:58:37;16.1;90.5
74484;SHT31;62942;52.462;10.846;2023-06-22T01:59:37;16.1;90.6
74484;SHT31;62942;52.462;10.846;2023-06-22T02:00:48;16.1;90.7
74484;SHT31;62942;52.462;10.846;2023-06-22T02:02:03;16.1;90.9
74484;SHT31;62942;52.462;10.846;2023-06-22T02:02:48;16.1;91.1
74484;SHT31;62942;52.462;10.846;2023-06-22T02:03:47;16.1;91.2
74484;SHT31;62942;52.462;10.846;2023-06-22T02:04:48;16.1;91.5
74484;SHT31;62942;52.462;10.846;2023-06-22T02:05:58;16.1;91.6
74484;SHT31;62942;52.462;10.846;2023-06-22T02:06:58;16.1;91.6
74484;SHT31;62942;52.462;10.846;2023-06-22T02:08:07;16.1;91.6
74484;SHT31;62942;52.462;10.846;2023-06-22T02:09:07;16.1;91.5
74484;SHT31;62942;52.462;10.846;2023-06-22T02:10:16;16.1;91.6
74484;SHT31;62942;52.462;10.846;2023-06-22T02:11:47;16.1;91.6
74484;SHT31;62942;52.462;10.846;2023-06-22T02:12:46;16;91.7
74484;SHT31;62942;52.462;10.846;2023-06-22T02:13:46;16;91.8
74484;SHT31;62942;52.462;10.846;2023-06-22T02:14:56;16;91.8
74484;SHT31;62942;52.462;10.846;2023-06-22T02:16:06;15.9;91.9
74484;SHT31;62942;52.462;10.846;2023-06-22T02:17:07;15.9;92
74484;SHT31;62942;52.462;10.846;2023-06-22T02:18:16;15.8;92
74484;SHT31;62942;52.462;10.846;2023-06-22T02:19:16;15.8;92.1
74484;SHT31;62942;52.462;10.846;2023-06-22T02:20:26;15.8;92
74484;SHT31;62942;52.462;10.846;2023-06-22T02:21:36;15.8;92.2
74484;SHT31;62942;52.462;10.846;2023-06-22T02:22:46;15.8;92.3
74484;SHT31;62942;52.462;10.846;2023-06-22T02:23:56;15.8;92.5
74484;SHT31;62942;52.462;10.846;2023-06-22T02:24:56;15.8;92.6
74484;SHT31;62942;52.462;10.846;2023-06-22T02:25:56;15.8;92.7
74484;SHT31;62942;52.462;10.846;2023-06-22T02:26:56;15.8;92.8
74484;SHT31;62942;52.462;10.846;2023-06-22T02:28:06;15.8;92.9
74484;SHT31;62942;52.462;10.846;2023-06-22T02:29:16;15.8;93
74484;SHT31;62942;52.462;10.846;2023-06-22T02:30:16;15.8;93.1
74484;SHT31;62942;52.462;10.846;2023-06-22T02:31:26;15.8;93.2
74484;SHT31;62942;52.462;10.846;2023-06-22T02:32:36;15.8;93.2
74484;SHT31;62942;52.462;10.846;2023-06-22T02:33:46;15.8;93.3
74484;SHT31;62942;52.462;10.846;2023-06-22T02:34:46;15.8;93.3
74484;SHT31;62942;52.462;10.846;2023-06-22T02:35:46;15.8;93.3
74484;SHT31;62942;52.462;10.846;2023-06-22T02:36:56;15.8;93.3
74484;SHT31;62942;52.462;10.846;2023-06-22T02:38:06;15.8;93.2
74484;SHT31;62942;52.462;10.846;2023-06-22T02:39:06;15.8;93.2
74484;SHT31;62942;52.462;10.846;2023-06-22T02:40:07;15.9;93.2
74484;SHT31;62942;52.462;10.846;2023-06-22T02:41:16;15.9;93.1
74484;SHT31;62942;52.462;10.846;2023-06-22T02:42:26;15.9;93.1
74484;SHT31;62942;52.462;10.846;2023-06-22T02:43:26;15.8;93
74484;SHT31;62942;52.462;10.846;2023-06-22T02:44:26;15.9;93.1
74484;SHT31;62942;52.462;10.846;2023-06-22T02:45:36;15.9;93.1
74484;SHT31;62942;52.462;10.846;2023-06-22T02:46:36;15.8;93.1
74484;SHT31;62942;52.462;10.846;2023-06-22T02:47:46;15.9;93.1
74484;SHT31;62942;52.462;10.846;2023-06-22T02:48:56;15.8;93.1
74484;SHT31;62942;52.462;10.846;2023-06-22T02:50:07;15.9;93.1
74484;SHT31;62942;52.462;10.846;2023-06-22T02:51:16;15.8;93.1
74484;SHT31;62942;52.462;10.846;2023-06-22T02:52:16;15.8;93.1
74484;SHT31;62942;52.462;10.846;2023-06-22T02:53:26;15.8;93
74484;SHT31;62942;52.462;10.846;2023-06-22T02:54:36;15.8;93
74484;SHT31;62942;52.462;10.846;2023-06-22T02:55:36;15.8;93
74484;SHT31;62942;52.462;10.846;2023-06-22T02:56:46;15.8;93.1
74484;SHT31;62942;52.462;10.846;2023-06-22T02:57:46;15.8;93.1
74484;SHT31;62942;52.462;10.846;2023-06-22T02:58:46;15.8;93.1
74484;SHT31;62942;52.462;10.846;2023-06-22T02:59:56;15.9;93.1
74484;SHT31;62942;52.462;10.846;2023-06-22T03:01:06;15.9;93.1
74484;SHT31;62942;52.462;10.846;2023-06-22T03:02:06;15.9;93.1
74484;SHT31;62942;52.462;10.846;2023-06-22T03:03:06;15.9;93.1
74484;SHT31;62942;52.462;10.846;2023-06-22T03:04:17;15.9;93.1
74484;SHT31;62942;52.462;10.846;2023-06-22T03:05:26;15.9;93.1
74484;SHT31;62942;52.462;10.846;2023-06-22T03:06:26;15.9;93
74484;SHT31;62942;52.462;10.846;2023-06-22T03:07:36;15.9;93.1
74484;SHT31;62942;52.462;10.846;2023-06-22T03:08:46;15.9;93.1
74484;SHT31;62942;52.462;10.846;2023-06-22T03:09:56;15.9;93
74484;SHT31;62942;52.462;10.846;2023-06-22T03:10:56;16;93
74484;SHT31;62942;52.462;10.846;2023-06-22T03:12:07;15.9;93
74484;SHT31;62942;52.462;10.846;2023-06-22T03:13:16;16;92.9
74484;SHT31;62942;52.462;10.846;2023-06-22T03:14:16;15.9;92.8
74484;SHT31;62942;52.462;10.846;2023-06-22T03:15:16;15.9;92.7
74484;SHT31;62942;52.462;10.846;2023-06-22T03:16:26;15.9;92.7
74484;SHT31;62942;52.462;10.846;2023-06-22T03:17:37;15.9;92.6
74484;SHT31;62942;52.462;10.846;2023-06-22T03:18:46;15.9;92.5
74484;SHT31;62942;52.462;10.846;2023-06-22T03:19:46;15.9;92.5
74484;SHT31;62942;52.462;10.846;2023-06-22T03:20:46;16;92.4
74484;SHT31;62942;52.462;10.846;2023-06-22T03:21:56;16;92.4
74484;SHT31;62942;52.462;10.846;2023-06-22T03:22:56;16;92.4
74484;SHT31;62942;52.462;10.846;2023-06-22T03:24:06;16;92.4
74484;SHT31;62942;52.462;10.846;2023-06-22T03:25:16;16;92.5
74484;SHT31;62942;52.462;10.846;2023-06-22T03:26:17;16;92.4
74484;SHT31;62942;52.462;10.846;2023-06-22T03:27:26;16.1;92.4
74484;SHT31;62942;52.462;10.846;2023-06-22T03:28:37;16.1;92.3
74484;SHT31;62942;52.462;10.846;2023-06-22T03:29:36;16.1;92.3
74484;SHT31;62942;52.462;10.846;2023-06-22T03:30:37;16.1;92.2
74484;SHT31;62942;52.462;10.846;2023-06-22T03:31:36;16.2;92.2
74484;SHT31;62942;52.462;10.846;2023-06-22T03:32:36;16.2;92
74484;SHT31;62942;52.462;10.846;2023-06-22T03:33:36;16.2;91.9
74484;SHT31;62942;52.462;10.846;2023-06-22T03:34:36;16.3;91.8
74484;SHT31;62942;52.462;10.846;2023-06-22T03:35:36;16.3;91.8
74484;SHT31;62942;52.462;10.846;2023-06-22T03:36:46;16.3;91.7
74484;SHT31;62942;52.462;10.846;2023-06-22T03:37:56;16.3;91.6
74484;SHT31;62942;52.462;10.846;2023-06-22T03:38:57;16.4;91.5
74484;SHT31;62942;52.462;10.846;2023-06-22T03:39:56;16.4;91.5
74484;SHT31;62942;52.462;10.846;2023-06-22T03:41:06;16.4;91.4
74484;SHT31;62942;52.462;10.846;2023-06-22T03:42:06;16.4;91.3
74484;SHT31;62942;52.462;10.846;2023-06-22T03:43:16;16.4;91.2
74484;SHT31;62942;52.462;10.846;2023-06-22T03:44:16;16.5;91.1
74484;SHT31;62942;52.462;10.846;2023-06-22T03:45:26;16.5;91
74484;SHT31;62942;52.462;10.846;2023-06-22T03:46:26;16.5;91
74484;SHT31;62942;52.462;10.846;2023-06-22T03:47:36;16.5;90.9
74484;SHT31;62942;52.462;10.846;2023-06-22T03:48:37;16.5;90.9
74484;SHT31;62942;52.462;10.846;2023-06-22T03:49:46;16.5;90.8
74484;SHT31;62942;52.462;10.846;2023-06-22T03:50:46;16.5;90.8
74484;SHT31;62942;52.462;10.846;2023-06-22T03:51:46;16.5;90.8
74484;SHT31;62942;52.462;10.846;2023-06-22T03:52:46;16.6;90.8
74484;SHT31;62942;52.462;10.846;2023-06-22T03:53:46;16.6;90.8
74484;SHT31;62942;52.462;10.846;2023-06-22T03:54:56;16.6;90.8
74484;SHT31;62942;52.462;10.846;2023-06-22T03:55:56;16.6;90.8
74484;SHT31;62942;52.462;10.846;2023-06-22T03:57:06;16.7;90.7
74484;SHT31;62942;52.462;10.846;2023-06-22T03:58:16;16.7;90.6
74484;SHT31;62942;52.462;10.846;2023-06-22T03:59:16;16.7;90.6
74484;SHT31;62942;52.462;10.846;2023-06-22T04:00:26;16.7;90.5
74484;SHT31;62942;52.462;10.846;2023-06-22T04:01:36;16.7;90.5
74484;SHT31;62942;52.462;10.846;2023-06-22T04:02:46;16.7;90.4
74484;SHT31;62942;52.462;10.846;2023-06-22T04:03:56;16.8;90.3
74484;SHT31;62942;52.462;10.846;2023-06-22T04:04:56;16.8;90.3
74484;SHT31;62942;52.462;10.846;2023-06-22T04:06:06;16.8;90.2
74484;SHT31;62942;52.462;10.846;2023-06-22T04:07:16;16.9;90.2
74484;SHT31;62942;52.462;10.846;2023-06-22T04:08:17;16.9;90.1
74484;SHT31;62942;52.462;10.846;2023-06-22T04:09:26;16.9;90
74484;SHT31;62942;52.462;10.846;2023-06-22T04:10:26;16.9;89.9
74484;SHT31;62942;52.462;10.846;2023-06-22T04:11:26;17;89.7
74484;SHT31;62942;52.462;10.846;2023-06-22T04:12:26;17;89.6
74484;SHT31;62942;52.462;10.846;2023-06-22T04:13:36;17;89.5
74484;SHT31;62942;52.462;10.846;2023-06-22T04:14:36;17.1;89.5
74484;SHT31;62942;52.462;10.846;2023-06-22T04:15:36;17.1;89.4
74484;SHT31;62942;52.462;10.846;2023-06-22T04:16:46;17.1;89.4
74484;SHT31;62942;52.462;10.846;2023-06-22T04:17:46;17.1;89.2
74484;SHT31;62942;52.462;10.846;2023-06-22T04:18:46;17.2;89.1
74484;SHT31;62942;52.462;10.846;2023-06-22T04:19:46;17.2;88.9
74484;SHT31;62942;52.462;10.846;2023-06-22T04:20:56;17.2;88.7
74484;SHT31;62942;52.462;10.846;2023-06-22T04:21:56;17.2;88.6
74484;SHT31;62942;52.462;10.846;2023-06-22T04:23:06;17.3;88.5
74484;SHT31;62942;52.462;10.846;2023-06-22T04:24:16;17.3;88.4
74484;SHT31;62942;52.462;10.846;2023-06-22T04:25:26;17.3;88.3
74484;SHT31;62942;52.462;10.846;2023-06-22T04:26:26;17.4;88.2
74484;SHT31;62942;52.462;10.846;2023-06-22T04:27:36;17.4;88
74484;SHT31;62942;52.462;10.846;2023-06-22T04:28:46;17.5;87.8
74484;SHT31;62942;52.462;10.846;2023-06-22T04:29:57;17.5;87.6
74484;SHT31;62942;52.462;10.846;2023-06-22T04:31:06;17.6;87.5
74484;SHT31;62942;52.462;10.846;2023-06-22T04:32:06;17.6;87.3
74484;SHT31;62942;52.462;10.846;2023-06-22T04:33:16;17.6;87.1
74484;SHT31;62942;52.462;10.846;2023-06-22T04:34:26;17.7;87
74484;SHT31;62942;52.462;10.846;2023-06-22T04:35:36;17.7;86.8
74484;SHT31;62942;52.462;10.846;2023-06-22T04:36:46;17.8;86.6
74484;SHT31;62942;52.462;10.846;2023-06-22T04:37:57;17.8;86.4
74484;SHT31;62942;52.462;10.846;2023-06-22T04:38:56;17.9;86.2
74484;SHT31;62942;52.462;10.846;2023-06-22T04:40:06;17.9;85.9
74484;SHT31;62942;52.462;10.846;2023-06-22T04:41:16;18;85.7
74484;SHT31;62942;52.462;10.846;2023-06-22T04:42:26;18;85.5
74484;SHT31;62942;52.462;10.846;2023-06-22T04:43:36;18.1;85.1
74484;SHT31;62942;52.462;10.846;2023-06-22T04:44:36;18.1;84.8
74484;SHT31;62942;52.462;10.846;2023-06-22T04:45:46;18.2;84.5
74484;SHT31;62942;52.462;10.846;2023-06-22T04:46:46;18.3;84.3
74484;SHT31;62942;52.462;10.846;2023-06-22T04:47:46;18.4;84.1
74484;SHT31;62942;52.462;10.846;2023-06-22T04:48:56;18.4;83.8
74484;SHT31;62942;52.462;10.846;2023-06-22T04:50:06;18.5;83.4
74484;SHT31;62942;52.462;10.846;2023-06-22T04:51:16;18.6;83
74484;SHT31;62942;52.462;10.846;2023-06-22T04:52:26;18.7;82.8
74484;SHT31;62942;52.462;10.846;2023-06-22T04:53:36;18.8;82.5
74484;SHT31;62942;52.462;10.846;2023-06-22T04:54:46;18.9;82.1
74484;SHT31;62942;52.462;10.846;2023-06-22T04:55:46;19;81.8
74484;SHT31;62942;52.462;10.846;2023-06-22T04:56:56;19;81.1
74484;SHT31;62942;52.462;10.846;2023-06-22T04:57:56;19.1;80.8
74484;SHT31;62942;52.462;10.846;2023-06-22T04:59:07;19.2;80.6
74484;SHT31;62942;52.462;10.846;2023-06-22T05:00:17;19.2;80.3
74484;SHT31;62942;52.462;10.846;2023-06-22T05:01:26;19.3;80
74484;SHT31;62942;52.462;10.846;2023-06-22T05:02:36;19.4;79.8
74484;SHT31;62942;52.462;10.846;2023-06-22T05:03:46;19.4;79.5
74484;SHT31;62942;52.462;10.846;2023-06-22T05:04:46;19.5;79.3
74484;SHT31;62942;52.462;10.846;2023-06-22T05:05:46;19.5;79.2
74484;SHT31;62942;52.462;10.846;2023-06-22T05:06:56;19.6;78.8
74484;SHT31;62942;52.462;10.846;2023-06-22T05:07:56;19.7;78.8
74484;SHT31;62942;52.462;10.846;2023-06-22T05:08:56;19.7;78.8
74484;SHT31;62942;52.462;10.846;2023-06-22T05:10:06;19.8;78.6
74484;SHT31;62942;52.462;10.846;2023-06-22T05:11:06;19.8;78.4
74484;SHT31;62942;52.462;10.846;2023-06-22T05:12:16;19.9;78.3
74484;SHT31;62942;52.462;10.846;2023-06-22T05:13:16;19.9;78.3
74484;SHT31;62942;52.462;10.846;2023-06-22T05:14:26;19.9;78.3
74484;SHT31;62942;52.462;10.846;2023-06-22T05:15:26;20;78.4
74484;SHT31;62942;52.462;10.846;2023-06-22T05:16:26;20.1;78.1
74484;SHT31;62942;52.462;10.846;2023-06-22T05:17:26;20.1;78.1
74484;SHT31;62942;52.462;10.846;2023-06-22T05:18:36;20.2;77.9
74484;SHT31;62942;52.462;10.846;2023-06-22T05:19:36;20.2;77.7
74484;SHT31;62942;52.462;10.846;2023-06-22T05:20:46;20.3;77.2
74484;SHT31;62942;52.462;10.846;2023-06-22T05:21:56;20.4;76.9
74484;SHT31;62942;52.462;10.846;2023-06-22T05:23:06;20.5;76.7
74484;SHT31;62942;52.462;10.846;2023-06-22T05:24:06;20.6;76.1
74484;SHT31;62942;52.462;10.846;2023-06-22T05:25:16;20.6;76
74484;SHT31;62942;52.462;10.846;2023-06-22T05:26:26;20.7;75.9
74484;SHT31;62942;52.462;10.846;2023-06-22T05:27:36;20.8;75.6
74484;SHT31;62942;52.462;10.846;2023-06-22T05:28:36;20.9;74.9
74484;SHT31;62942;52.462;10.846;2023-06-22T05:29:36;21;75.1
74484;SHT31;62942;52.462;10.846;2023-06-22T05:30:46;21.1;74.8
74484;SHT31;62942;52.462;10.846;2023-06-22T05:31:56;21.1;74.8
74484;SHT31;62942;52.462;10.846;2023-06-22T05:33:06;21.2;74.5
74484;SHT31;62942;52.462;10.846;2023-06-22T05:34:16;21.2;74.4
74484;SHT31;62942;52.462;10.846;2023-06-22T05:35:26;21.3;74.2
74484;SHT31;62942;52.462;10.846;2023-06-22T05:36:36;21.3;74.3
74484;SHT31;62942;52.462;10.846;2023-06-22T05:37:36;21.3;74.2
74484;SHT31;62942;52.462;10.846;2023-06-22T05:38:46;21.3;74.3
74484;SHT31;62942;52.462;10.846;2023-06-22T05:39:56;21.3;74.1
74484;SHT31;62942;52.462;10.846;2023-06-22T05:41:06;21.2;74.2
74484;SHT31;62942;52.462;10.846;2023-06-22T05:42:07;21.2;73.9
74484;SHT31;62942;52.462;10.846;2023-06-22T05:43:06;21.1;74.1
74484;SHT31;62942;52.462;10.846;2023-06-22T05:44:16;21.1;74.4
74484;SHT31;62942;52.462;10.846;2023-06-22T05:45:26;21.1;74.5
74484;SHT31;62942;52.462;10.846;2023-06-22T05:46:36;21.1;74.8
74484;SHT31;62942;52.462;10.846;2023-06-22T05:47:46;21.1;74.8
74484;SHT31;62942;52.462;10.846;2023-06-22T05:48:56;21.1;74.9
74484;SHT31;62942;52.462;10.846;2023-06-22T05:50:06;21.1;74.7
74484;SHT31;62942;52.462;10.846;2023-06-22T05:51:16;21.1;74.8
74484;SHT31;62942;52.462;10.846;2023-06-22T05:52:26;21.1;74.8
74484;SHT31;62942;52.462;10.846;2023-06-22T05:53:26;21.1;74.7
74484;SHT31;62942;52.462;10.846;2023-06-22T05:54:36;21.2;74.8
74484;SHT31;62942;52.462;10.846;2023-06-22T05:55:36;21.2;74.9
74484;SHT31;62942;52.462;10.846;2023-06-22T05:56:46;21.3;74.6
74484;SHT31;62942;52.462;10.846;2023-06-22T05:57:56;21.4;74.5
74484;SHT31;62942;52.462;10.846;2023-06-22T05:58:56;21.4;74.3
74484;SHT31;62942;52.462;10.846;2023-06-22T06:00:06;21.6;73.9
74484;SHT31;62942;52.462;10.846;2023-06-22T06:01:16;21.7;73.7
74484;SHT31;62942;52.462;10.846;2023-06-22T06:02:26;21.8;73.3
74484;SHT31;62942;52.462;10.846;2023-06-22T06:03:26;21.9;73.1
74484;SHT31;62942;52.462;10.846;2023-06-22T06:04:36;22;72.8
74484;SHT31;62942;52.462;10.846;2023-06-22T06:05:46;22.1;72.6
74484;SHT31;62942;52.462;10.846;2023-06-22T06:06:46;22.2;72.2
74484;SHT31;62942;52.462;10.846;2023-06-22T06:07:46;22.3;71.7
74484;SHT31;62942;52.462;10.846;2023-06-22T06:08:56;22.5;71.4
74484;SHT31;62942;52.462;10.846;2023-06-22T06:10:06;22.7;71
74484;SHT31;62942;52.462;10.846;2023-06-22T06:11:16;23;70.5
74484;SHT31;62942;52.462;10.846;2023-06-22T06:12:16;23.1;69.7
74484;SHT31;62942;52.462;10.846;2023-06-22T06:13:26;23.3;69.5
74484;SHT31;62942;52.462;10.846;2023-06-22T06:14:26;23.3;69.2
74484;SHT31;62942;52.462;10.846;2023-06-22T06:15:36;23.4;68.7
74484;SHT31;62942;52.462;10.846;2023-06-22T06:16:48;23.5;68.7
74484;SHT31;62942;52.462;10.846;2023-06-22T06:17:56;23.6;68.3
74484;SHT31;62942;52.462;10.846;2023-06-22T06:18:56;23.6;68.1
74484;SHT31;62942;52.462;10.846;2023-06-22T06:20:06;23.6;67.9
74484;SHT31;62942;52.462;10.846;2023-06-22T06:21:16;23.6;67.9
74484;SHT31;62942;52.462;10.846;2023-06-22T06:22:26;23.6;67.8
74484;SHT31;62942;52.462;10.846;2023-06-22T06:23:36;23.6;67.7
74484;SHT31;62942;52.462;10.846;2023-06-22T06:24:36;23.5;67.8
74484;SHT31;62942;52.462;10.846;2023-06-22T06:25:46;23.5;68.1
74484;SHT31;62942;52.462;10.846;2023-06-22T06:26:46;23.5;68.2
74484;SHT31;62942;52.462;10.846;2023-06-22T06:27:46;23.5;68.4
74484;SHT31;62942;52.462;10.846;2023-06-22T06:28:46;23.5;68.3
74484;SHT31;62942;52.462;10.846;2023-06-22T06:29:56;23.5;68.4
74484;SHT31;62942;52.462;10.846;2023-06-22T06:30:56;23.6;68.4
74484;SHT31;62942;52.462;10.846;2023-06-22T06:31:56;23.6;68.1
74484;SHT31;62942;52.462;10.846;2023-06-22T06:32:56;23.6;68.3
74484;SHT31;62942;52.462;10.846;2023-06-22T06:33:56;23.6;68.1
74484;SHT31;62942;52.462;10.846;2023-06-22T06:35:07;23.7;68.1
74484;SHT31;62942;52.462;10.846;2023-06-22T06:36:06;23.7;68.1
74484;SHT31;62942;52.462;10.846;2023-06-22T06:37:06;23.7;68.2
74484;SHT31;62942;52.462;10.846;2023-06-22T06:38:16;23.8;68
74484;SHT31;62942;52.462;10.846;2023-06-22T06:39:16;23.8;67.9
74484;SHT31;62942;52.462;10.846;2023-06-22T06:40:26;23.8;68
74484;SHT31;62942;52.462;10.846;2023-06-22T06:41:36;23.8;67.8
74484;SHT31;62942;52.462;10.846;2023-06-22T06:42:46;23.8;67.7
74484;SHT31;62942;52.462;10.846;2023-06-22T06:43:56;23.8;67.9
74484;SHT31;62942;52.462;10.846;2023-06-22T06:44:56;23.8;67.9
74484;SHT31;62942;52.462;10.846;2023-06-22T06:46:06;23.8;68
74484;SHT31;62942;52.462;10.846;2023-06-22T06:47:06;23.8;68
74484;SHT31;62942;52.462;10.846;2023-06-22T06:48:06;23.8;68.2
74484;SHT31;62942;52.462;10.846;2023-06-22T06:49:16;24;68.1
74484;SHT31;62942;52.462;10.846;2023-06-22T06:50:26;24.2;67.9
74484;SHT31;62942;52.462;10.846;2023-06-22T06:51:26;24.3;67.6
74484;SHT31;62942;52.462;10.846;2023-06-22T06:52:26;24.4;67.3
74484;SHT31;62942;52.462;10.846;2023-06-22T06:53:37;24.6;66.9
74484;SHT31;62942;52.462;10.846;2023-06-22T06:54:46;24.7;66.2
74484;SHT31;62942;52.462;10.846;2023-06-22T06:55:46;24.8;65.7
74484;SHT31;62942;52.462;10.846;2023-06-22T06:56:56;24.9;65.5
74484;SHT31;62942;52.462;10.846;2023-06-22T06:57:56;25.1;65.2
74484;SHT31;62942;52.462;10.846;2023-06-22T06:59:06;25.3;65.1
74484;SHT31;62942;52.462;10.846;2023-06-22T07:00:16;25.4;65
74484;SHT31;62942;52.462;10.846;2023-06-22T07:01:16;25.5;64.6
74484;SHT31;62942;52.462;10.846;2023-06-22T07:02:26;25.6;64
74484;SHT31;62942;52.462;10.846;2023-06-22T07:03:36;25.6;63.9
74484;SHT31;62942;52.462;10.846;2023-06-22T07:04:36;25.6;64.1
74484;SHT31;62942;52.462;10.846;2023-06-22T07:05:46;25.6;63.7